Hovedside
METAR-TAF:

METAR-TAF

Lufthavner :

Wellington internasjonale lufthavn

Wellington, New Zealand

breddegrad: 41-20S, lengdegrad: 174-48E, høyde over havet: 12 m

Gjeldene værobservasjon

Denne rapporten ble laget for 24 minutter siden, klokken 05:00 UTC
Vind 4 kt fra Sør-sørvest, skiftende mellom Nordøst og Sørvest
Temperatur 19°C
Luftfuktighet 68%
Trykk 1024 hPa
Sikt 10 km eller mer

METAR: NZWN 220500Z AUTO 20004KT 040V230 9999 NCD 19/13 Q1024 NOSIG

Tid: 18:24 (05:24 UTC)

Varsel

Denne rapporten ble laget for 6 timer og 21 minutter siden, klokken 23:03 UTC
Varsel gyldig fra 22. klokken 00 UTC til 23. klokken 00 UTC
Vind 10 kt fra Sør-sørvest
Sikt 10 km eller mer
Få skyer i en høyde av 2500 ft
Blir
fra 22. klokken 06 UTC til 22. klokken 08 UTC
Vind 5 kt fra Nord-nordøst

TAF: NZWN 212303Z 2200/2300 20010KT 9999 FEW025 BECMG 2206/2208 02005KT

Værobservasjoner og værvarsel for over 4000 flyplasser (METAR- og TAF-rapporter).

Tilgjengelige stasjoner er representert av de røde og gule prikkene på kartet.

Hold musepekeren over prikken for å se navnet på stasjonen.

Klikk så for å se værobservasjoner og -varsler.

For å forandre kartet kan du klikke på den grønne knappen med svart kryss for å zoome inn, på den grønne knappen med strek for å zoome ut, eller på de grønne pilene for å se tilstøtende kart.


METAR-TAF: